Time;durP1;ratioP1;P1;durP2;ratioP2;P2;SDS_P1;SDS_P2;PMS_P1;PMS_P2;Temp;Humidity;BMP_temperature;BMP_pressure;BME280_temperature;BME280_humidity;BME280_pressure;Samples;Min_cycle;Max_cycle;Signal;HPM_P1;HPM_P2
2023/07/17 00:00:27;;;;;;;9.90;2.50;;;19.00;99.90;;;;;;4936070;29;20184;-75
2023/07/17 00:02:53;;;;;;;9.00;2.10;;;19.00;99.90;;;;;;4937199;29;20172;-75
2023/07/17 00:05:19;;;;;;;7.97;2.42;;;19.00;99.90;;;;;;4937033;29;20225;-75
2023/07/17 00:07:45;;;;;;;10.07;2.53;;;19.00;99.90;;;;;;4936053;29;20652;-76
2023/07/17 00:10:11;;;;;;;12.20;2.75;;;19.00;99.90;;;;;;4937475;29;20183;-77
2023/07/17 00:12:38;;;;;;;9.90;2.55;;;19.00;99.90;;;;;;4936612;29;20183;-74
2023/07/17 00:15:05;;;;;;;15.55;2.50;;;18.90;99.90;;;;;;4935850;29;20197;-79
2023/07/17 00:17:31;;;;;;;12.20;2.97;;;18.90;99.90;;;;;;4936369;29;20328;-76
2023/07/17 00:19:57;;;;;;;7.38;2.70;;;18.90;99.90;;;;;;4937256;29;20266;-75
2023/07/17 00:22:24;;;;;;;11.40;2.85;;;18.90;99.90;;;;;;4936028;29;20258;-75
2023/07/17 00:24:52;;;;;;;10.88;2.75;;;18.90;99.90;;;;;;4935578;29;20210;-76
2023/07/17 00:27:17;;;;;;;12.70;2.90;;;18.80;99.90;;;;;;4936684;29;20747;-75
2023/07/17 00:29:44;;;;;;;10.68;2.60;;;18.80;99.90;;;;;;4935692;29;20179;-75
2023/07/17 00:32:13;;;;;;;11.30;3.25;;;18.80;99.90;;;;;;4935604;29;20187;-74
2023/07/17 00:34:40;;;;;;;12.73;2.70;;;18.80;99.90;;;;;;4937382;29;20222;-75
2023/07/17 00:37:08;;;;;;;12.05;2.80;;;18.80;99.90;;;;;;4936556;29;20199;-75
2023/07/17 00:39:34;;;;;;;16.80;3.15;;;18.80;99.90;;;;;;4936296;29;20239;-75
2023/07/17 00:42:01;;;;;;;13.38;3.00;;;18.80;99.90;;;;;;4935492;29;20254;-74
2023/07/17 00:44:27;;;;;;;11.00;3.30;;;18.80;99.90;;;;;;4936762;29;20210;-75
2023/07/17 00:46:54;;;;;;;13.88;2.78;;;18.70;99.90;;;;;;4935623;29;20208;-75
2023/07/17 00:49:26;;;;;;;11.63;3.15;;;18.70;99.90;;;;;;4936719;29;20207;-75
2023/07/17 00:51:52;;;;;;;14.00;3.13;;;18.70;99.90;;;;;;4937096;29;20179;-75
2023/07/17 00:54:19;;;;;;;14.45;3.50;;;18.70;99.90;;;;;;4935266;29;20595;-75
2023/07/17 00:56:46;;;;;;;12.63;3.05;;;18.70;99.90;;;;;;4936523;29;20589;-75
2023/07/17 00:59:13;;;;;;;10.93;2.97;;;18.70;99.90;;;;;;4935365;29;20179;-75
2023/07/17 01:01:40;;;;;;;8.93;2.97;;;18.60;99.90;;;;;;4935142;29;20199;-75
2023/07/17 01:04:06;;;;;;;9.88;2.70;;;18.60;99.90;;;;;;4937233;29;20544;-75
2023/07/17 01:06:38;;;;;;;7.95;2.10;;;18.50;99.90;;;;;;4934951;28;20214;-74
2023/07/17 01:09:11;;;;;;;7.47;2.40;;;18.50;99.90;;;;;;4935811;29;20504;-75
2023/07/17 01:11:37;;;;;;;6.93;2.30;;;18.40;99.90;;;;;;4936287;29;20167;-75
2023/07/17 01:14:02;;;;;;;6.70;2.10;;;18.40;99.90;;;;;;4935216;29;20226;-75
2023/07/17 01:16:28;;;;;;;5.07;1.80;;;18.30;99.90;;;;;;4936003;29;20576;-75
2023/07/17 01:18:54;;;;;;;4.68;2.08;;;18.30;99.90;;;;;;4935818;29;20180;-76
2023/07/17 01:21:25;;;;;;;4.95;2.00;;;18.20;99.90;;;;;;4934754;28;20751;-76
2023/07/17 01:23:52;;;;;;;7.35;2.35;;;18.10;99.90;;;;;;4935182;28;20179;-75
2023/07/17 01:26:18;;;;;;;5.55;2.08;;;18.10;99.90;;;;;;4936017;28;20230;-75
2023/07/17 01:28:45;;;;;;;5.07;2.00;;;18.00;99.90;;;;;;4934949;29;20194;-78
2023/07/17 01:31:12;;;;;;;6.47;2.20;;;18.00;99.90;;;;;;4936554;29;20179;-75
2023/07/17 01:33:38;;;;;;;5.95;2.50;;;18.00;99.90;;;;;;4935933;29;20223;-77
2023/07/17 01:36:06;;;;;;;7.57;2.28;;;18.00;99.90;;;;;;4934786;29;20261;-76
2023/07/17 01:38:35;;;;;;;5.20;2.20;;;17.90;99.90;;;;;;4936890;29;20183;-75
2023/07/17 01:41:01;;;;;;;7.50;2.25;;;17.90;99.90;;;;;;4934691;29;20620;-75
2023/07/17 01:43:27;;;;;;;6.72;2.42;;;17.90;99.90;;;;;;4934789;29;20215;-75
2023/07/17 01:45:53;;;;;;;7.88;2.30;;;17.90;99.90;;;;;;4934667;29;20266;-75
2023/07/17 01:48:18;;;;;;;8.40;2.70;;;17.90;99.90;;;;;;4936179;29;20203;-78
2023/07/17 01:50:45;;;;;;;7.90;2.60;;;17.90;99.90;;;;;;4936606;29;20578;-78
2023/07/17 01:53:11;;;;;;;8.82;2.42;;;17.90;99.90;;;;;;4936277;29;20192;-78
2023/07/17 01:55:37;;;;;;;7.55;2.28;;;17.90;99.90;;;;;;4936975;29;20298;-75
2023/07/17 01:58:03;;;;;;;6.35;2.03;;;17.80;99.90;;;;;;4919297;29;20218;-75
2023/07/17 02:00:29;;;;;;;6.32;2.30;;;17.80;99.90;;;;;;4935583;29;20560;-76
2023/07/17 02:02:55;;;;;;;4.47;2.00;;;17.80;99.90;;;;;;4935727;29;20628;-74
2023/07/17 02:05:21;;;;;;;6.85;2.42;;;17.80;99.90;;;;;;4936249;29;20231;-74
2023/07/17 02:07:47;;;;;;;8.10;2.42;;;17.80;99.90;;;;;;4936909;29;20184;-74
2023/07/17 02:10:12;;;;;;;8.93;2.78;;;17.80;99.90;;;;;;4934825;29;20190;-75
2023/07/17 02:12:38;;;;;;;10.05;2.45;;;17.80;99.90;;;;;;4935495;29;20522;-75
2023/07/17 02:15:06;;;;;;;6.88;2.40;;;17.80;99.90;;;;;;4935898;29;20246;-74
2023/07/17 02:17:36;;;;;;;7.57;2.70;;;17.70;99.90;;;;;;4934629;29;20186;-75
2023/07/17 02:20:02;;;;;;;11.57;2.78;;;17.70;99.90;;;;;;4935380;29;20266;-74
2023/07/17 02:22:32;;;;;;;8.07;2.40;;;17.70;99.90;;;;;;4920242;29;20263;-74
2023/07/17 02:24:57;;;;;;;8.95;2.47;;;17.80;99.90;;;;;;4938381;29;20290;-74
2023/07/17 02:27:23;;;;;;;7.70;2.38;;;17.70;99.90;;;;;;4936517;29;20191;-75
2023/07/17 02:29:49;;;;;;;12.93;2.70;;;17.70;99.90;;;;;;4937115;29;20188;-75
2023/07/17 02:32:15;;;;;;;8.73;2.85;;;17.70;99.90;;;;;;4939272;29;20266;-73
2023/07/17 02:34:40;;;;;;;9.02;2.60;;;17.60;99.90;;;;;;4940255;29;20235;-74
2023/07/17 02:37:10;;;;;;;9.88;2.40;;;17.70;99.90;;;;;;4922888;29;20191;-74
2023/07/17 02:39:38;;;;;;;7.93;2.63;;;17.60;99.90;;;;;;4939734;29;20167;-75
2023/07/17 02:42:07;;;;;;;8.65;2.70;;;17.60;99.90;;;;;;4939901;29;20187;-75
2023/07/17 02:44:32;;;;;;;9.35;2.58;;;17.50;99.90;;;;;;4940879;29;20179;-73
2023/07/17 02:46:59;;;;;;;11.68;3.15;;;17.50;99.90;;;;;;4940278;29;20255;-75
2023/07/17 02:49:25;;;;;;;9.43;3.15;;;17.50;99.90;;;;;;4939889;29;20194;-77
2023/07/17 02:51:50;;;;;;;9.65;3.00;;;17.50;99.90;;;;;;4940197;29;20194;-74
2023/07/17 02:54:16;;;;;;;11.90;3.17;;;17.40;99.90;;;;;;4939802;29;20183;-74
2023/07/17 02:56:42;;;;;;;11.05;2.97;;;17.50;99.90;;;;;;4940565;29;20213;-74
2023/07/17 02:59:08;;;;;;;11.05;3.35;;;17.50;99.90;;;;;;4939329;29;20625;-75
2023/07/17 03:01:33;;;;;;;8.75;2.88;;;17.40;99.90;;;;;;4940569;29;20226;-75
2023/07/17 03:04:01;;;;;;;7.95;3.17;;;17.40;99.90;;;;;;4923721;29;20535;-76
2023/07/17 03:06:26;;;;;;;11.02;3.40;;;17.30;99.90;;;;;;4939166;29;20361;-76
2023/07/17 03:08:52;;;;;;;9.45;3.38;;;17.40;99.90;;;;;;4940462;29;20179;-75
2023/07/17 03:11:18;;;;;;;9.60;3.95;;;17.30;99.90;;;;;;4938687;29;20183;-75
2023/07/17 03:13:43;;;;;;;10.27;3.58;;;17.30;99.90;;;;;;4921722;29;20535;-75
2023/07/17 03:16:09;;;;;;;13.82;3.60;;;17.30;99.90;;;;;;4938680;29;20572;-75
2023/07/17 03:18:35;;;;;;;8.43;3.33;;;17.30;99.90;;;;;;4939705;29;20631;-75
2023/07/17 03:21:01;;;;;;;10.40;3.20;;;17.30;99.90;;;;;;4937822;29;20594;-75
2023/07/17 03:23:27;;;;;;;10.30;3.42;;;17.20;99.90;;;;;;4937747;29;20675;-75
2023/07/17 03:25:55;;;;;;;9.00;3.28;;;17.20;99.90;;;;;;4938576;29;20698;-75
2023/07/17 03:28:21;;;;;;;10.35;3.70;;;17.30;99.90;;;;;;4938314;29;20194;-75
2023/07/17 03:30:47;;;;;;;10.45;3.05;;;17.20;99.90;;;;;;4938192;29;20199;-75
2023/07/17 03:33:13;;;;;;;10.60;3.30;;;17.30;99.90;;;;;;4936980;29;20226;-73
2023/07/17 03:35:39;;;;;;;9.35;3.30;;;17.20;99.90;;;;;;4938113;29;20222;-75
2023/07/17 03:38:05;;;;;;;10.07;3.28;;;17.20;99.90;;;;;;4938248;29;20581;-75
2023/07/17 03:40:31;;;;;;;9.32;3.15;;;17.20;99.90;;;;;;4920910;29;20262;-75
2023/07/17 03:42:57;;;;;;;8.02;2.88;;;17.20;99.90;;;;;;4937056;29;20256;-75
2023/07/17 03:45:23;;;;;;;9.43;2.90;;;17.20;99.90;;;;;;4936563;28;20223;-75
2023/07/17 03:47:52;;;;;;;11.15;2.80;;;17.20;99.90;;;;;;4936544;28;20192;-76
2023/07/17 03:50:19;;;;;;;10.43;2.95;;;17.20;99.90;;;;;;4936422;29;20632;-74
2023/07/17 03:52:44;;;;;;;10.13;3.05;;;17.20;99.90;;;;;;4937766;29;20190;-75
2023/07/17 03:55:11;;;;;;;7.55;2.97;;;17.20;99.90;;;;;;4936936;28;20202;-74
2023/07/17 03:57:37;;;;;;;9.57;3.03;;;17.10;99.90;;;;;;4920505;29;20266;-77
2023/07/17 04:00:04;;;;;;;11.32;3.20;;;17.20;99.90;;;;;;4936336;29;20179;-78
2023/07/17 04:02:40;;;;;;;8.05;2.80;;;17.20;99.90;;;;;;4936595;29;20175;-74
2023/07/17 04:05:08;;;;;;;7.75;2.67;;;17.10;99.90;;;;;;4936439;28;20207;-76
2023/07/17 04:07:34;;;;;;;9.13;3.00;;;17.10;99.90;;;;;;4936083;29;20650;-76
2023/07/17 04:10:00;;;;;;;9.40;2.83;;;17.00;99.90;;;;;;4936036;29;20253;-73
2023/07/17 04:12:26;;;;;;;10.50;3.20;;;17.00;99.90;;;;;;4936704;28;20613;-74
2023/07/17 04:14:52;;;;;;;13.52;3.20;;;17.00;99.90;;;;;;4937281;29;20184;-77
2023/07/17 04:17:18;;;;;;;8.77;2.85;;;17.10;99.90;;;;;;4920130;29;20263;-77
2023/07/17 04:19:44;;;;;;;9.73;2.80;;;17.00;99.90;;;;;;4935863;29;20198;-75
2023/07/17 04:22:10;;;;;;;11.15;2.88;;;17.00;99.90;;;;;;4935899;29;20188;-76
2023/07/17 04:24:36;;;;;;;10.35;3.17;;;17.00;99.90;;;;;;4920131;29;20278;-76
2023/07/17 04:27:02;;;;;;;8.80;3.00;;;16.90;99.90;;;;;;4936426;29;20302;-78
2023/07/17 04:29:28;;;;;;;10.65;2.90;;;16.90;99.90;;;;;;4935684;29;20187;-81
2023/07/17 04:31:59;;;;;;;15.25;2.80;;;16.90;99.90;;;;;;4920407;29;20183;-76
2023/07/17 04:34:25;;;;;;;10.10;2.97;;;16.90;99.90;;;;;;4937179;29;20227;-77
2023/07/17 04:36:51;;;;;;;12.13;3.22;;;16.90;99.90;;;;;;4919827;29;20192;-76
2023/07/17 04:39:17;;;;;;;7.35;2.75;;;16.90;99.90;;;;;;4935314;29;20187;-76
2023/07/17 04:41:43;;;;;;;11.18;3.03;;;16.90;99.90;;;;;;4936838;29;20171;-77
2023/07/17 04:44:11;;;;;;;11.75;2.92;;;16.80;99.90;;;;;;4935503;29;20191;-76
2023/07/17 04:46:37;;;;;;;12.77;2.67;;;16.90;99.90;;;;;;4936613;29;20219;-76
2023/07/17 04:49:03;;;;;;;15.15;3.30;;;16.90;99.90;;;;;;4935171;29;20261;-77
2023/07/17 04:51:30;;;;;;;7.15;2.72;;;16.90;99.90;;;;;;4935477;29;20230;-76
2023/07/17 04:53:57;;;;;;;9.35;2.88;;;16.90;99.90;;;;;;4934181;29;20175;-77
2023/07/17 04:56:23;;;;;;;13.50;3.20;;;16.90;99.90;;;;;;4935362;29;20203;-77
2023/07/17 04:58:49;;;;;;;13.38;3.50;;;16.90;99.90;;;;;;4935046;28;20554;-76
2023/07/17 05:01:15;;;;;;;10.23;3.10;;;16.90;99.90;;;;;;4935417;28;20189;-78
2023/07/17 05:03:41;;;;;;;10.63;3.00;;;16.90;99.90;;;;;;4919642;29;20190;-76
2023/07/17 05:06:07;;;;;;;15.38;3.65;;;16.90;99.90;;;;;;4919209;29;20233;-76
2023/07/17 05:08:33;;;;;;;10.82;3.28;;;16.90;99.90;;;;;;4936811;29;20180;-77
2023/07/17 05:11:00;;;;;;;12.32;3.60;;;16.90;99.90;;;;;;4919382;29;20187;-76
2023/07/17 05:13:31;;;;;;;10.13;2.90;;;16.90;99.90;;;;;;4934825;29;20217;-77
2023/07/17 05:15:59;;;;;;;14.85;3.17;;;17.00;99.90;;;;;;4935755;29;20218;-77
2023/07/17 05:18:25;;;;;;;10.00;3.47;;;17.00;99.90;;;;;;4918807;29;20659;-76
2023/07/17 05:20:51;;;;;;;9.10;3.20;;;17.00;99.90;;;;;;4935708;29;20269;-76
2023/07/17 05:23:18;;;;;;;13.68;3.47;;;17.00;99.90;;;;;;4919750;29;20194;-76
2023/07/17 05:25:55;;;;;;;10.52;3.20;;;17.10;99.90;;;;;;4936038;29;20227;-80
2023/07/17 05:28:23;;;;;;;17.63;3.80;;;17.10;99.90;;;;;;4919992;29;20168;-76
2023/07/17 05:30:53;;;;;;;13.65;3.83;;;17.10;99.90;;;;;;4934855;29;20187;-77
2023/07/17 05:33:23;;;;;;;11.88;3.30;;;17.10;99.90;;;;;;4934536;28;20223;-84
2023/07/17 05:35:50;;;;;;;16.92;3.97;;;17.20;99.90;;;;;;4903695;29;20266;-77
2023/07/17 05:38:18;;;;;;;11.65;3.15;;;17.20;99.90;;;;;;4919452;29;20214;-77
2023/07/17 05:40:46;;;;;;;11.18;3.20;;;17.20;99.90;;;;;;4934774;28;20258;-76
2023/07/17 05:43:11;;;;;;;14.82;3.47;;;17.20;99.90;;;;;;4934866;29;20191;-78
2023/07/17 05:45:45;;;;;;;16.75;3.42;;;17.30;99.90;;;;;;4920096;29;20219;-78
2023/07/17 05:48:10;;;;;;;13.75;3.58;;;17.30;99.90;;;;;;4918937;29;20654;-78
2023/07/17 05:50:36;;;;;;;11.68;3.88;;;17.30;99.90;;;;;;4935359;28;20628;-77
2023/07/17 05:53:03;;;;;;;11.20;3.80;;;17.30;99.90;;;;;;4918980;29;20278;-77
2023/07/17 05:55:29;;;;;;;17.83;3.75;;;17.40;99.90;;;;;;4918862;29;20193;-77
2023/07/17 05:57:55;;;;;;;13.35;3.92;;;17.40;99.90;;;;;;4934577;29;20635;-78
2023/07/17 06:00:21;;;;;;;13.27;3.60;;;17.50;99.90;;;;;;4918702;29;20191;-78
2023/07/17 06:02:47;;;;;;;17.20;4.00;;;17.50;99.90;;;;;;4934399;29;20238;-77
2023/07/17 06:05:14;;;;;;;15.15;3.83;;;17.50;99.90;;;;;;4936776;29;20180;-76
2023/07/17 06:07:40;;;;;;;17.17;4.13;;;17.60;99.90;;;;;;4923216;29;20632;-77
2023/07/17 06:10:07;;;;;;;14.13;4.07;;;17.60;99.90;;;;;;4939241;29;20179;-77
2023/07/17 06:12:33;;;;;;;12.57;4.15;;;17.60;99.90;;;;;;4938276;29;20184;-76
2023/07/17 06:14:59;;;;;;;15.43;4.35;;;17.60;99.90;;;;;;4938120;29;20238;-76
2023/07/17 06:17:25;;;;;;;13.20;4.10;;;17.70;99.90;;;;;;4939122;29;20184;-78
2023/07/17 06:19:51;;;;;;;16.15;4.13;;;17.70;99.90;;;;;;4938271;29;20194;-76
2023/07/17 06:22:16;;;;;;;13.15;4.53;;;17.70;99.90;;;;;;4939395;29;20188;-76
2023/07/17 06:24:42;;;;;;;13.35;4.18;;;17.80;99.90;;;;;;4939783;29;20179;-76
2023/07/17 06:27:08;;;;;;;14.73;4.40;;;17.80;99.90;;;;;;4937905;29;20230;-75
2023/07/17 06:29:34;;;;;;;12.15;4.55;;;17.90;99.90;;;;;;4922087;29;20195;-76
2023/07/17 06:32:00;;;;;;;18.27;4.88;;;17.90;99.90;;;;;;4937734;29;20190;-76
2023/07/17 06:34:26;;;;;;;14.80;4.80;;;18.00;99.90;;;;;;4939156;29;20238;-76
2023/07/17 06:36:51;;;;;;;17.95;4.82;;;18.00;99.90;;;;;;4939157;29;20198;-75
2023/07/17 06:39:17;;;;;;;17.33;4.75;;;18.00;99.90;;;;;;4938917;29;20190;-75
2023/07/17 06:41:43;;;;;;;13.80;4.70;;;18.10;99.90;;;;;;4939141;29;20214;-77
2023/07/17 06:44:09;;;;;;;15.70;4.93;;;18.20;99.90;;;;;;4937533;29;20187;-75
2023/07/17 06:46:35;;;;;;;16.80;4.93;;;18.20;99.90;;;;;;4921837;29;20207;-77
2023/07/17 06:49:00;;;;;;;21.17;5.50;;;18.20;99.90;;;;;;4937838;29;20282;-76
2023/07/17 06:51:26;;;;;;;14.77;4.82;;;18.30;99.90;;;;;;4938671;29;20180;-75
2023/07/17 06:53:53;;;;;;;17.35;5.07;;;18.30;99.90;;;;;;4937633;29;20632;-76
2023/07/17 06:56:19;;;;;;;15.15;5.40;;;18.30;99.90;;;;;;4938554;28;20198;-76
2023/07/17 06:58:44;;;;;;;14.25;4.50;;;18.40;99.90;;;;;;4937389;29;20513;-75
2023/07/17 07:01:11;;;;;;;18.60;4.85;;;18.40;99.90;;;;;;4938749;29;20609;-75
2023/07/17 07:03:37;;;;;;;18.80;5.65;;;18.50;99.90;;;;;;4939391;29;20188;-74
2023/07/17 07:06:06;;;;;;;16.67;5.50;;;18.50;99.90;;;;;;4937226;29;20211;-79
2023/07/17 07:08:32;;;;;;;14.15;4.82;;;18.60;99.90;;;;;;4937411;29;20624;-76
2023/07/17 07:11:00;;;;;;;18.10;5.03;;;18.60;99.90;;;;;;4938446;29;20180;-74
2023/07/17 07:13:27;;;;;;;13.90;5.18;;;18.60;99.90;;;;;;4937180;29;20179;-75
2023/07/17 07:15:53;;;;;;;12.85;5.28;;;18.60;99.90;;;;;;4937150;29;20195;-76
2023/07/17 07:18:20;;;;;;;12.43;5.18;;;18.60;99.90;;;;;;4936822;29;20179;-75
2023/07/17 07:20:47;;;;;;;16.88;5.30;;;18.60;99.90;;;;;;4937922;29;20546;-76
2023/07/17 07:23:13;;;;;;;17.00;5.00;;;18.60;99.90;;;;;;4937433;29;20297;-77
2023/07/17 07:25:39;;;;;;;17.80;5.25;;;18.50;99.90;;;;;;4921136;29;20211;-76
2023/07/17 07:28:06;;;;;;;11.82;4.85;;;18.50;99.90;;;;;;4938039;29;20184;-76
2023/07/17 07:30:31;;;;;;;14.80;4.80;;;18.50;99.90;;;;;;4938296;29;20190;-77
2023/07/17 07:32:57;;;;;;;12.85;3.80;;;18.50;99.90;;;;;;4936508;29;20183;-76
2023/07/17 07:35:23;;;;;;;13.32;4.30;;;18.50;99.90;;;;;;4937166;29;20203;-76
2023/07/17 07:37:49;;;;;;;11.60;3.78;;;18.40;99.90;;;;;;4936591;29;20180;-77
2023/07/17 07:40:15;;;;;;;11.93;3.60;;;18.40;99.90;;;;;;4938661;29;20186;-76
2023/07/17 07:42:42;;;;;;;10.15;4.15;;;18.30;99.90;;;;;;4937733;29;20187;-76
2023/07/17 07:45:09;;;;;;;11.73;4.43;;;18.20;99.90;;;;;;4937593;29;20183;-76
2023/07/17 07:47:35;;;;;;;10.43;4.20;;;18.10;99.90;;;;;;4937460;29;20227;-76
2023/07/17 07:50:01;;;;;;;9.45;3.80;;;18.10;99.90;;;;;;4937949;29;20275;-77
2023/07/17 07:52:27;;;;;;;8.85;4.22;;;18.10;99.90;;;;;;4936338;29;20190;-77
2023/07/17 07:54:53;;;;;;;12.93;4.18;;;18.10;99.90;;;;;;4937909;29;20183;-76
2023/07/17 07:57:19;;;;;;;11.00;4.30;;;18.10;99.90;;;;;;4937622;29;20322;-77
2023/07/17 07:59:45;;;;;;;12.82;4.38;;;18.20;99.90;;;;;;4937917;29;20616;-76
2023/07/17 08:02:12;;;;;;;13.40;4.43;;;18.20;99.90;;;;;;4936348;29;20195;-76
2023/07/17 08:04:38;;;;;;;18.67;4.35;;;18.20;99.90;;;;;;4920989;29;20546;-77
2023/07/17 08:07:04;;;;;;;11.93;4.15;;;18.30;99.90;;;;;;4937084;29;20211;-79
2023/07/17 08:09:30;;;;;;;15.20;4.55;;;18.40;99.90;;;;;;4936056;28;20609;-75
2023/07/17 08:11:56;;;;;;;15.45;4.18;;;18.50;99.90;;;;;;4937565;29;20608;-76
2023/07/17 08:14:22;;;;;;;12.63;4.95;;;18.60;99.90;;;;;;4937329;29;20175;-76
2023/07/17 08:16:51;;;;;;;11.48;4.38;;;18.60;99.90;;;;;;4936018;29;20190;-76
2023/07/17 08:19:19;;;;;;;12.80;4.78;;;18.70;99.90;;;;;;4936844;29;20175;-76
2023/07/17 08:21:45;;;;;;;14.93;4.60;;;18.80;99.90;;;;;;4936861;29;20562;-76
2023/07/17 08:24:11;;;;;;;13.43;4.25;;;18.90;99.90;;;;;;4936970;29;20187;-75
2023/07/17 08:26:40;;;;;;;12.80;4.45;;;19.00;99.90;;;;;;4936067;29;20279;-76
2023/07/17 08:29:06;;;;;;;14.68;4.60;;;19.00;99.90;;;;;;4935699;28;20175;-75
2023/07/17 08:31:32;;;;;;;13.48;4.28;;;19.10;99.90;;;;;;4936630;29;20553;-76
2023/07/17 08:34:03;;;;;;;11.55;3.63;;;19.20;99.90;;;;;;4937281;29;20223;-76
2023/07/17 08:36:30;;;;;;;11.93;4.18;;;19.30;99.90;;;;;;4936535;29;20206;-76
2023/07/17 08:38:56;;;;;;;10.43;4.00;;;19.30;99.90;;;;;;4936985;29;20180;-76
2023/07/17 08:41:22;;;;;;;12.88;4.13;;;19.40;99.90;;;;;;4936240;29;20632;-76
2023/07/17 08:43:52;;;;;;;11.88;3.75;;;19.50;99.90;;;;;;4936854;29;20257;-76
2023/07/17 08:46:18;;;;;;;15.20;3.88;;;19.50;99.90;;;;;;4935180;29;20262;-75
2023/07/17 08:48:45;;;;;;;13.70;3.78;;;19.60;99.90;;;;;;4936555;29;20277;-75
2023/07/17 08:51:12;;;;;;;13.10;4.00;;;19.60;99.90;;;;;;4935095;29;20262;-76
2023/07/17 08:53:44;;;;;;;8.88;3.85;;;19.70;99.90;;;;;;4936722;29;20182;-74
2023/07/17 08:56:11;;;;;;;8.23;3.75;;;19.70;99.90;;;;;;4936631;29;20633;-78
2023/07/17 08:58:37;;;;;;;9.45;3.88;;;19.70;99.90;;;;;;4936442;29;20239;-76
2023/07/17 09:01:04;;;;;;;11.07;3.67;;;19.70;99.90;;;;;;4937043;29;20596;-75
2023/07/17 09:03:32;;;;;;;9.73;3.42;;;19.70;99.90;;;;;;4936250;29;20210;-76
2023/07/17 09:06:01;;;;;;;11.05;3.40;;;19.80;99.90;;;;;;4936030;29;20746;-76
2023/07/17 09:08:27;;;;;;;12.75;3.17;;;19.90;99.90;;;;;;4936495;29;20190;-76
2023/07/17 09:11:07;;;;;;;15.75;3.35;;;20.00;99.90;;;;;;4936112;29;20179;-79
2023/07/17 09:13:37;;;;;;;13.40;3.22;;;20.10;99.90;;;;;;4935368;29;20258;-75
2023/07/17 09:16:21;;;;;;;7.70;2.88;;;20.10;99.90;;;;;;4936488;29;20230;-76
2023/07/17 09:18:49;;;;;;;8.75;2.70;;;20.20;99.90;;;;;;4936012;29;20190;-77
2023/07/17 09:21:25;;;;;;;7.68;2.85;;;20.30;99.90;;;;;;4936015;29;20516;-76
2023/07/17 09:23:53;;;;;;;10.55;2.63;;;20.40;99.90;;;;;;4936365;29;20612;-78
2023/07/17 09:26:22;;;;;;;17.67;3.55;;;20.40;99.90;;;;;;4935869;29;20667;-77
2023/07/17 09:28:51;;;;;;;6.03;2.83;;;20.50;99.90;;;;;;4936424;29;20179;-75
2023/07/17 09:31:37;;;;;;;8.52;3.30;;;20.60;99.90;;;;;;4919363;29;20183;-79
2023/07/17 09:34:12;;;;;;;10.32;2.88;;;20.70;99.90;;;;;;4934037;29;20706;-75
2023/07/17 09:36:38;;;;;;;9.20;2.72;;;20.70;99.90;;;;;;4935844;29;20181;-75
2023/07/17 09:39:05;;;;;;;11.68;2.67;;;20.80;99.90;;;;;;4935890;29;20183;-76
2023/07/17 09:41:31;;;;;;;6.18;2.03;;;20.80;99.90;;;;;;4935829;29;20179;-77
2023/07/17 09:44:02;;;;;;;9.98;2.42;;;20.90;99.90;;;;;;4936202;29;20191;-75
2023/07/17 09:46:29;;;;;;;7.90;2.65;;;21.00;99.90;;;;;;4935949;29;20211;-77
2023/07/17 09:48:56;;;;;;;6.25;2.67;;;21.10;99.90;;;;;;4936093;29;20183;-76
2023/07/17 09:51:23;;;;;;;11.60;2.53;;;21.20;99.70;;;;;;4935603;29;20183;-77
2023/07/17 09:53:49;;;;;;;7.90;2.53;;;21.30;99.40;;;;;;4936009;29;20625;-77
2023/07/17 09:56:18;;;;;;;4.90;2.08;;;21.40;99.00;;;;;;4918442;29;20187;-78
2023/07/17 09:58:51;;;;;;;5.72;2.53;;;21.50;98.80;;;;;;4935109;29;20264;-76
2023/07/17 10:01:22;;;;;;;9.32;2.40;;;21.60;98.60;;;;;;4936225;29;20304;-77
2023/07/17 10:03:49;;;;;;;7.47;2.20;;;21.70;98.40;;;;;;4935474;29;20172;-78
2023/07/17 10:06:20;;;;;;;8.73;2.13;;;21.80;98.00;;;;;;4934703;29;20305;-77
2023/07/17 10:08:52;;;;;;;7.18;2.42;;;21.80;97.40;;;;;;4936052;29;20303;-75
2023/07/17 10:11:19;;;;;;;5.25;2.10;;;21.80;97.00;;;;;;4935598;29;20187;-76
2023/07/17 10:13:47;;;;;;;7.88;2.53;;;21.80;96.70;;;;;;4935783;29;20187;-77
2023/07/17 10:16:16;;;;;;;10.32;2.60;;;21.80;96.70;;;;;;4919257;29;20198;-76
2023/07/17 10:18:54;;;;;;;9.95;2.50;;;21.80;96.50;;;;;;4936200;29;20270;-76
2023/07/17 10:21:20;;;;;;;10.48;2.40;;;21.80;96.50;;;;;;4934866;29;20314;-76
2023/07/17 10:23:48;;;;;;;5.55;2.20;;;21.80;96.50;;;;;;4935919;29;20184;-76
2023/07/17 10:26:16;;;;;;;11.82;2.20;;;21.70;96.60;;;;;;4918592;29;20668;-76
2023/07/17 10:28:47;;;;;;;10.68;2.60;;;21.70;96.40;;;;;;4934008;29;20183;-76
2023/07/17 10:31:18;;;;;;;16.77;2.55;;;21.70;96.40;;;;;;4934622;29;20198;-78
2023/07/17 10:33:59;;;;;;;10.38;2.30;;;21.70;96.40;;;;;;4934140;29;20254;-76
2023/07/17 10:36:45;;;;;;;6.78;2.30;;;21.70;96.30;;;;;;4935310;29;20255;-78
2023/07/17 10:39:18;;;;;;;9.85;2.20;;;21.60;96.50;;;;;;4935540;29;20188;-76
2023/07/17 10:41:49;;;;;;;9.68;2.58;;;21.60;96.00;;;;;;4933814;29;20274;-77
2023/07/17 10:44:20;;;;;;;9.00;2.50;;;21.70;96.00;;;;;;4935059;29;20199;-76
2023/07/17 10:46:46;;;;;;;3.90;1.92;;;21.70;95.70;;;;;;4935548;29;20302;-76
2023/07/17 10:49:17;;;;;;;7.60;2.53;;;21.70;95.20;;;;;;4934939;29;20202;-76
2023/07/17 10:51:48;;;;;;;11.43;2.50;;;21.70;94.90;;;;;;4935807;29;20191;-76
2023/07/17 10:54:15;;;;;;;9.88;2.67;;;21.60;94.70;;;;;;4938402;29;20175;-77
2023/07/17 10:56:46;;;;;;;10.10;2.40;;;21.60;94.70;;;;;;4937619;29;20642;-76
2023/07/17 10:59:16;;;;;;;6.32;2.25;;;21.60;94.60;;;;;;4921174;29;20187;-77
2023/07/17 11:01:44;;;;;;;11.75;2.35;;;21.60;94.30;;;;;;4936989;29;20195;-75
2023/07/17 11:04:09;;;;;;;4.28;2.08;;;21.60;93.90;;;;;;4938303;29;20183;-75
2023/07/17 11:06:36;;;;;;;7.10;2.40;;;21.70;93.80;;;;;;4937777;29;20545;-77
2023/07/17 11:09:02;;;;;;;6.93;2.63;;;21.70;93.80;;;;;;4937560;29;20180;-75
2023/07/17 11:11:29;;;;;;;5.70;2.25;;;21.80;93.70;;;;;;4938471;29;20191;-76
2023/07/17 11:13:55;;;;;;;4.63;2.33;;;21.80;93.30;;;;;;4938639;29;20183;-75
2023/07/17 11:16:22;;;;;;;8.18;2.50;;;21.90;93.00;;;;;;4938116;29;20194;-77
2023/07/17 11:18:50;;;;;;;6.43;2.40;;;21.90;92.70;;;;;;4936783;29;20187;-75
2023/07/17 11:21:17;;;;;;;4.50;2.33;;;22.00;92.50;;;;;;4937913;29;20640;-76
2023/07/17 11:23:54;;;;;;;6.85;2.45;;;22.10;92.20;;;;;;4936614;29;20183;-75
2023/07/17 11:26:34;;;;;;;5.07;2.00;;;22.10;91.40;;;;;;4938362;29;20663;-75
2023/07/17 11:29:02;;;;;;;6.28;2.30;;;22.20;91.40;;;;;;4938216;29;20529;-75
2023/07/17 11:31:33;;;;;;;6.28;2.47;;;22.30;91.40;;;;;;4936405;29;20254;-76
2023/07/17 11:34:04;;;;;;;4.65;2.40;;;22.40;91.00;;;;;;4937717;29;20758;-76
2023/07/17 11:36:50;;;;;;;5.00;2.50;;;22.40;90.90;;;;;;4937681;29;20168;-76
2023/07/17 11:39:28;;;;;;;9.38;2.50;;;22.50;91.00;;;;;;4937618;28;20191;-76
2023/07/17 11:41:55;;;;;;;8.57;2.30;;;22.60;90.90;;;;;;4937211;29;20174;-75
2023/07/17 11:44:23;;;;;;;4.82;2.17;;;22.80;90.80;;;;;;4937599;29;20175;-75
2023/07/17 11:47:06;;;;;;;9.70;2.38;;;22.80;90.50;;;;;;4938088;29;20262;-75
2023/07/17 11:49:35;;;;;;;7.22;2.30;;;22.80;90.00;;;;;;4938020;29;20186;-75
2023/07/17 11:52:02;;;;;;;6.03;2.20;;;22.80;89.60;;;;;;4936304;29;20319;-75
2023/07/17 11:54:48;;;;;;;8.85;2.45;;;22.80;89.20;;;;;;4937448;29;20186;-75
2023/07/17 11:57:14;;;;;;;5.30;2.28;;;22.80;88.80;;;;;;4936200;29;20195;-76
2023/07/17 11:59:45;;;;;;;5.25;2.42;;;22.80;88.40;;;;;;4937564;29;20183;-76
2023/07/17 12:02:11;;;;;;;7.10;2.40;;;22.80;88.20;;;;;;4937891;29;20175;-77
2023/07/17 12:04:41;;;;;;;13.80;2.30;;;22.80;88.40;;;;;;4935797;29;20175;-76
2023/07/17 12:07:18;;;;;;;10.25;2.40;;;22.70;88.10;;;;;;4936177;29;20227;-75
2023/07/17 12:09:46;;;;;;;9.00;2.20;;;22.70;88.00;;;;;;4937092;29;20171;-75
2023/07/17 12:12:11;;;;;;;11.30;2.60;;;22.70;88.60;;;;;;4936209;29;20571;-76
2023/07/17 12:14:39;;;;;;;9.57;2.30;;;22.70;88.80;;;;;;4919923;29;20687;-76
2023/07/17 12:17:05;;;;;;;6.18;2.35;;;22.80;88.80;;;;;;4935879;29;20190;-76
2023/07/17 12:19:31;;;;;;;12.40;2.20;;;22.80;91.00;;;;;;4937315;29;20614;-75
2023/07/17 12:21:56;;;;;;;8.45;2.83;;;22.80;93.60;;;;;;4937504;29;20207;-75
2023/07/17 12:24:22;;;;;;;6.40;2.70;;;22.60;95.60;;;;;;4935649;29;20210;-74
2023/07/17 12:26:48;;;;;;;9.05;2.50;;;22.50;96.80;;;;;;4937142;29;20302;-75
2023/07/17 12:29:14;;;;;;;7.35;2.60;;;22.40;98.10;;;;;;4936976;29;20652;-75
2023/07/17 12:31:39;;;;;;;7.07;2.70;;;22.30;99.40;;;;;;4936809;29;20706;-75
2023/07/17 12:34:05;;;;;;;4.75;2.28;;;22.30;99.40;;;;;;4936743;29;20240;-75
2023/07/17 12:36:31;;;;;;;10.05;2.72;;;22.30;98.80;;;;;;4920701;29;20210;-76
2023/07/17 12:39:14;;;;;;;6.03;2.50;;;22.30;98.70;;;;;;4936878;29;20525;-75
2023/07/17 12:41:40;;;;;;;9.15;2.58;;;22.40;97.80;;;;;;4935605;29;20172;-75